createdAt,value
2017-06-01T05:27:46.204Z,18.20
2017-06-01T05:30:12.505Z,18.50
2017-06-01T05:32:39.389Z,19.20
2017-06-01T05:35:05.662Z,19.20
2017-06-01T05:37:32.304Z,19.50
2017-06-01T05:39:58.965Z,19.60
2017-06-01T05:42:25.603Z,19.70
2017-06-01T05:44:52.508Z,19.90
2017-06-01T05:47:19.141Z,19.90
2017-06-01T05:49:45.773Z,20.00
2017-06-01T05:52:12.053Z,20.00
2017-06-01T05:54:38.681Z,20.20
2017-06-01T05:57:05.748Z,20.20
2017-06-01T05:59:32.026Z,20.20
2017-06-01T06:01:58.680Z,20.40
2017-06-01T06:04:25.337Z,20.60
2017-06-01T06:06:51.961Z,20.60
2017-06-01T06:09:18.261Z,20.60
2017-06-01T06:11:44.538Z,20.70
2017-06-01T06:14:11.184Z,20.90
2017-06-01T06:16:37.844Z,21.20
2017-06-01T06:19:04.500Z,21.30
2017-06-01T06:21:31.528Z,21.50
2017-06-01T06:23:57.840Z,21.50
2017-06-01T06:26:24.494Z,21.60
2017-06-01T06:28:51.018Z,21.60
2017-06-01T06:31:17.642Z,21.60
2017-06-01T06:33:44.269Z,21.70
2017-06-01T06:36:10.920Z,21.80
2017-06-01T06:38:37.582Z,21.80
2017-06-01T06:41:04.261Z,21.80
2017-06-01T06:43:31.236Z,21.70
2017-06-01T06:45:57.864Z,21.80
2017-06-01T06:48:24.493Z,21.80
2017-06-01T06:50:51.144Z,21.70
2017-06-01T06:53:17.398Z,21.70
2017-06-01T06:55:44.078Z,21.70
2017-06-01T06:58:10.336Z,21.70
2017-06-01T07:00:36.993Z,22.00
2017-06-01T07:03:03.656Z,22.00
2017-06-01T07:05:30.309Z,22.20
2017-06-01T07:07:56.615Z,22.20
2017-06-01T07:10:23.265Z,22.30
2017-06-01T07:12:50.016Z,22.30
2017-06-01T07:15:16.677Z,22.20
2017-06-01T07:17:43.322Z,22.20
2017-06-01T07:20:09.993Z,22.30
2017-06-01T07:22:36.253Z,22.30
2017-06-01T07:25:02.907Z,22.40
2017-06-01T07:27:29.537Z,22.40
2017-06-01T07:29:55.813Z,22.40
2017-06-01T07:32:22.073Z,22.50
2017-06-01T07:34:48.722Z,22.70
2017-06-01T07:37:15.371Z,22.80
2017-06-01T07:39:41.653Z,22.80
2017-06-01T07:42:07.952Z,22.90
2017-06-01T07:44:34.239Z,22.90
2017-06-01T07:47:00.518Z,22.90
2017-06-01T07:49:27.177Z,23.10
2017-06-01T07:51:53.469Z,23.10
2017-06-01T07:54:19.762Z,23.30
2017-06-01T07:56:46.380Z,23.50
2017-06-01T07:59:13.335Z,23.70
2017-06-01T08:01:40.061Z,23.90
2017-06-01T08:04:06.733Z,24.00
2017-06-01T08:06:33.009Z,24.00
2017-06-01T08:08:59.277Z,23.90
2017-06-01T08:11:25.918Z,24.10
2017-06-01T08:13:52.532Z,24.30
2017-06-01T08:16:19.174Z,24.50
2017-06-01T08:18:45.813Z,24.70
2017-06-01T08:21:12.465Z,25.00
2017-06-01T08:23:39.089Z,25.30
2017-06-01T08:26:05.734Z,25.40
2017-06-01T08:28:32.350Z,25.60
2017-06-01T08:30:59.048Z,25.70
2017-06-01T08:33:25.350Z,25.70
2017-06-01T08:35:51.618Z,25.50
2017-06-01T08:38:18.233Z,25.20
2017-06-01T08:40:44.917Z,25.20
2017-06-01T08:43:11.197Z,25.20
2017-06-01T08:45:37.861Z,25.10
2017-06-01T08:48:04.491Z,25.10
2017-06-01T08:50:31.487Z,25.20
2017-06-01T08:52:57.780Z,25.30
2017-06-01T08:55:24.397Z,25.50
2017-06-01T08:57:50.685Z,25.50
2017-06-01T09:00:17.335Z,25.70
2017-06-01T09:02:43.626Z,25.70
2017-06-01T09:05:10.254Z,25.50
2017-06-01T09:07:36.897Z,25.50
2017-06-01T09:10:03.169Z,25.50
2017-06-01T09:12:29.801Z,25.40
2017-06-01T09:14:56.432Z,25.50
2017-06-01T09:17:23.076Z,25.50
2017-06-01T09:19:49.773Z,25.30
2017-06-01T09:22:16.401Z,25.50
2017-06-01T09:24:42.694Z,25.50
2017-06-01T09:27:09.345Z,25.80
2017-06-01T09:29:35.986Z,25.90
2017-06-01T09:32:02.291Z,25.90
2017-06-01T09:34:28.571Z,25.90
2017-06-01T09:36:54.889Z,25.80
2017-06-01T09:39:21.532Z,26.30
2017-06-01T09:41:48.981Z,26.20
2017-06-01T09:44:15.632Z,26.20
2017-06-01T09:46:42.267Z,26.20
2017-06-01T09:49:08.954Z,26.20
2017-06-01T09:51:35.585Z,26.10
2017-06-01T09:54:01.841Z,26.10
2017-06-01T09:56:28.463Z,26.20
2017-06-01T09:58:55.082Z,26.40
2017-06-01T10:01:21.750Z,26.70
2017-06-01T10:03:48.019Z,26.70
2017-06-01T10:06:14.681Z,26.80
2017-06-01T10:08:41.306Z,27.00
2017-06-01T10:11:07.942Z,27.00
2017-06-01T10:13:34.913Z,27.20
2017-06-01T10:16:01.545Z,27.60
2017-06-01T10:18:27.805Z,27.60
2017-06-01T10:20:54.493Z,28.30
2017-06-01T10:23:20.761Z,28.30
2017-06-01T10:25:47.024Z,28.20
2017-06-01T10:28:13.277Z,28.00
2017-06-01T10:30:39.910Z,27.60
2017-06-01T10:33:06.158Z,27.60
2017-06-01T10:35:33.232Z,27.90
2017-06-01T10:37:59.869Z,28.30
2017-06-01T10:40:26.527Z,28.40
2017-06-01T10:42:53.178Z,28.50
2017-06-01T10:45:19.430Z,28.60
2017-06-01T10:47:46.064Z,28.80
2017-06-01T10:50:12.325Z,28.80
2017-06-01T10:52:39.284Z,29.50
2017-06-01T10:55:05.924Z,29.70
2017-06-01T10:57:32.584Z,29.90
2017-06-01T10:59:58.863Z,29.90
2017-06-01T11:02:25.561Z,30.30
2017-06-01T11:04:52.213Z,30.40
2017-06-01T11:07:18.484Z,30.40
2017-06-01T11:09:45.147Z,30.70
2017-06-01T11:12:11.437Z,30.70
2017-06-01T11:14:37.702Z,30.80
2017-06-01T11:17:04.417Z,30.60
2017-06-01T11:19:31.152Z,30.50
2017-06-01T11:21:57.851Z,30.50
2017-06-01T11:24:24.154Z,30.50
2017-06-01T11:26:50.470Z,30.40
2017-06-01T11:29:16.744Z,30.10
2017-06-01T11:31:43.014Z,29.80
2017-06-01T11:34:09.667Z,29.40
2017-06-01T11:36:36.304Z,29.50
2017-06-01T11:39:03.052Z,29.70
2017-06-01T11:41:29.678Z,29.80
2017-06-01T11:43:56.437Z,29.80
2017-06-01T11:46:23.337Z,29.50
2017-06-01T11:48:49.621Z,29.50
2017-06-01T11:51:15.880Z,29.00
2017-06-01T11:53:43.871Z,28.50
2017-06-01T11:56:10.512Z,28.30
2017-06-01T11:58:37.172Z,28.20
2017-06-01T12:01:03.838Z,28.10
2017-06-01T12:03:30.490Z,28.00
2017-06-01T12:05:57.130Z,28.00
2017-06-01T12:08:23.419Z,28.00
2017-06-01T12:10:49.696Z,28.00
2017-06-01T12:13:16.327Z,28.00
2017-06-01T12:15:42.593Z,28.00
2017-06-01T12:18:08.982Z,28.10
2017-06-01T12:20:35.622Z,28.30
2017-06-01T12:23:01.957Z,28.30
2017-06-01T12:25:28.597Z,29.10
2017-06-01T12:27:55.516Z,29.30
2017-06-01T12:30:21.774Z,29.30
2017-06-01T12:32:48.429Z,30.10
2017-06-01T12:35:15.073Z,31.30
2017-06-01T12:37:41.699Z,32.70
2017-06-01T12:40:07.989Z,32.80
2017-06-01T12:42:34.624Z,35.20
2017-06-01T12:45:01.632Z,35.50
2017-06-01T12:47:28.262Z,35.30
2017-06-01T12:49:54.927Z,34.60
2017-06-01T12:52:21.243Z,34.60
2017-06-01T12:54:47.896Z,34.90
2017-06-01T12:57:14.545Z,35.30
2017-06-01T12:59:41.953Z,35.20
2017-06-01T13:02:08.517Z,35.20
2017-06-01T13:04:35.159Z,34.80
2017-06-01T13:07:01.861Z,35.20
2017-06-01T13:09:28.556Z,35.20
2017-06-01T13:11:55.204Z,35.70
2017-06-01T13:14:21.867Z,36.20
2017-06-01T13:16:48.151Z,36.20
2017-06-01T13:19:14.557Z,37.40
2017-06-01T13:21:41.189Z,39.60
2017-06-01T13:24:07.468Z,39.60
2017-06-01T13:26:34.109Z,40.80
2017-06-01T13:29:00.749Z,41.60
2017-06-01T13:31:27.049Z,41.60
2017-06-01T13:33:53.318Z,42.40
2017-06-01T13:36:20.212Z,42.90
2017-06-01T13:38:46.880Z,43.00
2017-06-01T13:41:13.524Z,43.30
2017-06-01T13:43:40.205Z,43.60
2017-06-01T13:46:06.840Z,43.50
2017-06-01T13:48:33.189Z,43.50
2017-06-01T13:50:59.466Z,43.90
2017-06-01T13:53:25.734Z,43.70
2017-06-01T13:55:52.416Z,43.80
2017-06-01T13:58:18.668Z,43.90
2017-06-01T14:00:45.621Z,44.40
2017-06-01T14:03:12.277Z,45.00
2017-06-01T14:05:38.893Z,45.10
2017-06-01T14:08:05.541Z,45.50
2017-06-01T14:10:32.165Z,45.20
2017-06-01T14:12:58.824Z,45.30
2017-06-01T14:15:25.464Z,45.20
2017-06-01T14:17:52.329Z,45.20
2017-06-01T14:20:18.970Z,43.90
2017-06-01T14:22:45.650Z,41.90
2017-06-01T14:25:11.929Z,41.90
2017-06-01T14:27:38.547Z,41.70
2017-06-01T14:30:05.511Z,42.60
2017-06-01T14:32:32.175Z,43.60
2017-06-01T14:34:58.799Z,44.50
2017-06-01T14:37:25.436Z,44.80
2017-06-01T14:39:52.069Z,45.60
2017-06-01T14:42:18.601Z,45.60
2017-06-01T14:44:45.253Z,45.50
2017-06-01T14:47:11.878Z,43.40
2017-06-01T14:49:38.542Z,41.70
2017-06-01T14:52:05.152Z,40.70
2017-06-01T14:54:31.798Z,39.30
2017-06-01T14:56:58.421Z,37.60
2017-06-01T14:59:25.381Z,36.80
2017-06-01T15:01:52.061Z,38.40
2017-06-01T15:04:18.558Z,38.40
2017-06-01T15:06:46.147Z,41.90
2017-06-01T15:09:12.771Z,43.00
2017-06-01T15:11:39.671Z,44.10
2017-06-01T15:14:06.317Z,44.70
2017-06-01T15:16:33.273Z,44.90
2017-06-01T15:18:59.893Z,45.10
2017-06-01T15:21:26.513Z,45.60
2017-06-01T15:23:53.177Z,45.20
2017-06-01T15:26:19.828Z,45.10
2017-06-01T15:28:46.508Z,45.60
2017-06-01T15:31:13.129Z,45.40
2017-06-01T15:33:39.417Z,45.40
2017-06-01T15:36:05.730Z,44.80
2017-06-01T15:38:32.380Z,41.10
2017-06-01T15:40:59.030Z,40.30
2017-06-01T15:43:25.301Z,40.30
2017-06-01T15:45:51.975Z,38.20
2017-06-01T15:48:18.626Z,37.00
2017-06-01T15:50:45.592Z,36.00
2017-06-01T15:53:12.297Z,35.40
2017-06-01T15:55:38.953Z,34.60
2017-06-01T15:58:05.613Z,33.90
2017-06-01T16:00:32.269Z,33.40
2017-06-01T16:02:59.181Z,33.20
2017-06-01T16:05:25.829Z,33.00
2017-06-01T16:07:52.099Z,33.00
2017-06-01T16:10:18.746Z,32.20
2017-06-01T16:12:45.408Z,31.70
2017-06-01T16:15:12.365Z,31.30
2017-06-01T16:17:38.672Z,31.30
2017-06-01T16:20:05.315Z,32.00
2017-06-01T16:22:31.959Z,34.20
2017-06-01T16:24:58.629Z,35.20
2017-06-01T16:27:25.255Z,34.80
2017-06-01T16:29:52.308Z,33.80
2017-06-01T16:32:18.741Z,33.80
2017-06-01T16:34:45.397Z,33.10
2017-06-01T16:37:12.168Z,32.30
2017-06-01T16:39:38.653Z,32.30
2017-06-01T16:42:04.921Z,31.50
2017-06-01T16:44:31.190Z,31.00
2017-06-01T16:46:58.362Z,30.10
2017-06-01T16:49:25.016Z,29.80
2017-06-01T16:51:51.654Z,29.70
2017-06-01T16:54:18.297Z,29.60
2017-06-01T16:56:44.929Z,29.60
2017-06-01T16:59:11.617Z,29.80
2017-06-01T17:01:38.274Z,30.40
2017-06-01T17:04:04.997Z,30.90
2017-06-01T17:06:31.624Z,30.70
2017-06-01T17:08:58.262Z,30.40
2017-06-01T17:11:24.898Z,30.10
2017-06-01T17:13:51.189Z,30.10
2017-06-01T17:16:17.849Z,29.50
2017-06-01T17:18:44.650Z,29.20
2017-06-01T17:21:11.265Z,29.00
2017-06-01T17:23:37.923Z,28.70
2017-06-01T17:26:04.164Z,28.70
2017-06-01T17:28:30.807Z,28.30
2017-06-01T17:30:57.497Z,28.10
2017-06-01T17:33:23.782Z,28.10
2017-06-01T17:35:50.476Z,27.80
2017-06-01T17:38:17.148Z,27.60
2017-06-01T17:40:43.777Z,27.40
2017-06-01T17:43:10.458Z,27.20
2017-06-01T17:45:37.558Z,27.00
2017-06-01T17:48:04.208Z,26.90
2017-06-01T17:50:30.828Z,26.70
2017-06-01T17:52:57.127Z,26.80
2017-06-01T17:55:24.649Z,26.60
2017-06-01T17:57:51.269Z,26.60
2017-06-01T18:00:17.933Z,26.50
2017-06-01T18:02:44.569Z,26.40
2017-06-01T18:05:11.217Z,26.30
2017-06-01T18:07:37.905Z,26.20
2017-06-01T18:10:04.561Z,26.10
2017-06-01T18:12:30.883Z,26.10
2017-06-01T18:14:57.561Z,25.90
2017-06-01T18:17:24.273Z,25.90
2017-06-01T18:19:51.025Z,25.90
2017-06-01T18:22:17.727Z,25.80
2017-06-01T18:24:44.407Z,25.70
2017-06-01T18:27:10.685Z,25.70
2017-06-01T18:29:37.416Z,25.50
2017-06-01T18:32:04.050Z,25.40
2017-06-01T18:34:30.702Z,25.30
2017-06-01T18:36:57.402Z,25.20
2017-06-01T18:39:24.315Z,25.10
2017-06-01T18:41:50.604Z,25.10
2017-06-01T18:44:16.894Z,25.00
2017-06-01T18:46:43.353Z,24.80
2017-06-01T18:49:10.245Z,24.40
2017-06-01T18:51:36.937Z,24.40
2017-06-01T18:54:03.610Z,24.20
2017-06-01T18:56:30.318Z,24.10
2017-06-01T18:58:57.025Z,24.10
2017-06-01T19:01:23.703Z,24.00
2017-06-01T19:03:50.390Z,23.90
2017-06-01T19:06:17.049Z,23.80
2017-06-01T19:08:43.705Z,23.80
2017-06-01T19:11:10.949Z,23.70
2017-06-01T19:13:37.579Z,23.60
2017-06-01T19:16:03.877Z,23.60
2017-06-01T19:18:30.128Z,23.60
2017-06-01T19:20:56.764Z,23.40
2017-06-01T19:23:23.454Z,23.40
2017-06-01T19:25:50.938Z,23.30
2017-06-01T19:28:17.911Z,23.30
2017-06-01T19:30:44.207Z,23.30
2017-06-01T19:33:10.464Z,23.20
2017-06-01T19:35:37.331Z,23.00
2017-06-01T19:38:03.977Z,22.90
2017-06-01T19:40:30.659Z,22.80
2017-06-01T19:42:56.918Z,22.80
2017-06-01T19:45:23.564Z,22.70
2017-06-01T19:47:49.970Z,22.70
2017-06-01T19:50:16.811Z,22.40
2017-06-01T19:52:43.503Z,22.30
2017-06-01T19:55:10.162Z,22.30
2017-06-01T19:57:36.817Z,22.30
2017-06-01T20:00:03.490Z,22.40
2017-06-01T20:02:30.219Z,22.40
2017-06-01T20:04:57.706Z,22.40
2017-06-01T20:07:23.975Z,22.40
2017-06-01T20:09:50.641Z,22.10
2017-06-01T20:12:17.284Z,22.10
2017-06-01T20:14:43.997Z,22.00
2017-06-01T20:17:10.288Z,22.10
2017-06-01T20:19:36.990Z,21.90
2017-06-01T20:22:03.657Z,21.90
2017-06-01T20:24:30.292Z,21.90
2017-06-01T20:26:57.394Z,22.00
2017-06-01T20:29:23.822Z,22.00
2017-06-01T20:31:50.122Z,22.00
2017-06-01T20:34:16.766Z,22.00
2017-06-01T20:36:43.425Z,22.00
2017-06-01T20:39:09.713Z,22.00
2017-06-01T20:41:36.600Z,22.00
2017-06-01T20:44:03.288Z,22.10
2017-06-01T20:46:29.998Z,22.10
2017-06-01T20:48:56.645Z,22.10
2017-06-01T20:51:23.729Z,22.10
2017-06-01T20:53:50.068Z,22.10
2017-06-01T20:56:16.798Z,22.10
2017-06-01T20:58:43.161Z,22.10
2017-06-01T21:01:09.843Z,22.20
2017-06-01T21:03:36.560Z,22.20
2017-06-01T21:06:03.188Z,22.20
2017-06-01T21:08:29.867Z,22.20
2017-06-01T21:10:56.512Z,22.20
2017-06-01T21:13:23.297Z,22.20
2017-06-01T21:15:49.584Z,22.20
2017-06-01T21:18:15.999Z,22.10
2017-06-01T21:20:42.690Z,22.10
2017-06-01T21:23:09.330Z,22.00
2017-06-01T21:25:35.610Z,22.00
2017-06-01T21:28:02.422Z,21.80
2017-06-01T21:30:28.709Z,21.90
2017-06-01T21:32:54.994Z,21.80
2017-06-01T21:35:21.626Z,21.70
2017-06-01T21:37:48.309Z,21.60
2017-06-01T21:40:14.571Z,21.60
2017-06-01T21:42:41.238Z,21.50
2017-06-01T21:45:07.884Z,21.40
2017-06-01T21:47:34.541Z,21.30
2017-06-01T21:50:01.179Z,21.20
2017-06-01T21:52:27.465Z,21.30
2017-06-01T21:54:53.733Z,21.20
2017-06-01T21:57:20.389Z,21.00
2017-06-01T21:59:46.637Z,21.00
2017-06-01T22:02:13.302Z,20.90
2017-06-01T22:04:40.018Z,20.90
2017-06-01T22:07:06.640Z,20.80
2017-06-01T22:09:33.302Z,20.70
2017-06-01T22:11:59.945Z,20.70
2017-06-01T22:14:26.556Z,20.60
2017-06-01T22:16:53.200Z,20.60
2017-06-01T22:19:19.837Z,20.50
2017-06-01T22:21:46.489Z,20.50
2017-06-01T22:24:13.143Z,20.40
2017-06-01T22:26:39.813Z,20.40
2017-06-01T22:29:06.448Z,20.30
2017-06-01T22:31:33.339Z,20.30
2017-06-01T22:33:59.969Z,20.20
2017-06-01T22:36:26.226Z,20.20
2017-06-01T22:38:52.501Z,20.10
2017-06-01T22:41:19.139Z,20.00
2017-06-01T22:43:45.768Z,20.00
2017-06-01T22:46:12.409Z,19.90
2017-06-01T22:48:39.071Z,19.80
2017-06-01T22:51:05.722Z,19.80
2017-06-01T22:53:32.357Z,19.70
2017-06-01T22:55:58.608Z,19.70
2017-06-01T22:58:25.249Z,19.80
2017-06-01T23:00:51.882Z,19.80
2017-06-01T23:03:18.522Z,19.80
2017-06-01T23:05:45.204Z,19.90
2017-06-01T23:08:11.492Z,19.90
2017-06-01T23:10:38.114Z,19.80
2017-06-01T23:13:04.777Z,19.70
2017-06-01T23:15:31.424Z,19.60
2017-06-01T23:18:00.596Z,19.60
2017-06-01T23:20:32.739Z,19.50
2017-06-01T23:23:03.783Z,19.40
2017-06-01T23:25:34.798Z,19.40
2017-06-01T23:28:01.669Z,19.40
2017-06-01T23:30:27.929Z,19.30
2017-06-01T23:32:54.581Z,19.30
2017-06-01T23:35:21.242Z,19.40
2017-06-01T23:37:47.517Z,19.40
2017-06-01T23:40:14.143Z,19.40
2017-06-01T23:42:40.817Z,19.40
2017-06-01T23:45:08.012Z,19.30
2017-06-01T23:47:34.278Z,19.30
2017-06-01T23:50:00.929Z,19.20
2017-06-01T23:52:27.565Z,19.20
2017-06-01T23:54:54.212Z,19.00
2017-06-01T23:57:22.456Z,18.90
2017-06-01T23:59:51.819Z,18.80
